Time;durP1;ratioP1;P1;durP2;ratioP2;P2;SDS_P1;SDS_P2;PMS_P1;PMS_P2;Temp;Humidity;BMP_temperature;BMP_pressure;BME280_temperature;BME280_humidity;BME280_pressure;Samples;Min_cycle;Max_cycle;Signal;HPM_P1;HPM_P2
2023/07/18 00:01:13;;;;;;;4.82;2.63;;;21.30;92.70;;;;;;5048291;28;20021;-82
2023/07/18 00:03:40;;;;;;;6.35;2.30;;;21.30;92.60;;;;;;5045059;28;20017;-77
2023/07/18 00:06:05;;;;;;;6.03;2.22;;;21.30;92.50;;;;;;5040520;28;20021;-83
2023/07/18 00:08:31;;;;;;;6.63;2.85;;;21.30;92.40;;;;;;5040631;28;20632;-81
2023/07/18 00:10:57;;;;;;;7.53;2.55;;;21.30;92.40;;;;;;5037757;28;20029;-82
2023/07/18 00:13:24;;;;;;;8.63;2.13;;;21.30;92.30;;;;;;5039089;28;20056;-82
2023/07/18 00:15:49;;;;;;;4.40;2.60;;;21.20;92.20;;;;;;5046071;28;20370;-82
2023/07/18 00:18:15;;;;;;;5.30;2.30;;;21.20;92.60;;;;;;5043163;28;20030;-81
2023/07/18 00:20:41;;;;;;;4.85;2.20;;;21.20;92.20;;;;;;5040532;28;20040;-79
2023/07/18 00:23:10;;;;;;;8.38;2.83;;;21.20;92.20;;;;;;5040717;28;20036;-82
2023/07/18 00:25:36;;;;;;;5.97;2.20;;;21.20;92.20;;;;;;5040480;28;20025;-82
2023/07/18 00:28:03;;;;;;;4.22;2.10;;;21.20;92.10;;;;;;5040941;28;20035;-83
2023/07/18 00:30:29;;;;;;;9.77;2.25;;;21.20;92.10;;;;;;5045130;28;20025;-82
2023/07/18 00:32:56;;;;;;;6.85;2.40;;;21.20;92.10;;;;;;5045375;28;20047;-82
2023/07/18 00:35:23;;;;;;;7.05;2.33;;;21.20;92.10;;;;;;5044555;28;20152;-82
2023/07/18 00:37:49;;;;;;;6.05;2.90;;;21.20;92.10;;;;;;5040802;28;20029;-82
2023/07/18 00:40:15;;;;;;;5.53;2.70;;;21.20;92.10;;;;;;5041398;28;20021;-79
2023/07/18 00:42:43;;;;;;;2.75;2.00;;;21.20;92.00;;;;;;5040485;28;20143;-82
2023/07/18 00:45:09;;;;;;;5.90;2.67;;;21.20;92.00;;;;;;5043922;28;20490;-82
2023/07/18 00:47:40;;;;;;;3.65;2.22;;;21.20;92.00;;;;;;5025109;28;20048;-82
2023/07/18 00:50:07;;;;;;;5.13;2.72;;;21.20;92.00;;;;;;5047660;28;20036;-81
2023/07/18 00:52:40;;;;;;;5.82;2.33;;;21.20;91.90;;;;;;5047693;28;20147;-80
2023/07/18 00:55:09;;;;;;;4.32;2.35;;;21.20;91.90;;;;;;5047400;28;20021;-81
2023/07/18 00:57:36;;;;;;;3.00;2.30;;;21.20;91.90;;;;;;5044851;28;20084;-82
2023/07/18 01:00:08;;;;;;;8.45;2.30;;;21.20;91.90;;;;;;5047865;28;20100;-82
2023/07/18 01:02:35;;;;;;;9.38;2.40;;;21.20;91.90;;;;;;5046833;28;20040;-83
2023/07/18 01:05:00;;;;;;;5.18;2.38;;;21.20;91.90;;;;;;5045675;28;20742;-81
2023/07/18 01:07:26;;;;;;;4.93;2.83;;;21.20;91.90;;;;;;5044979;28;20037;-82
2023/07/18 01:09:53;;;;;;;6.70;1.83;;;21.20;91.90;;;;;;5050250;28;20104;-82
2023/07/18 01:12:19;;;;;;;6.25;2.13;;;21.20;91.80;;;;;;5040604;28;20144;-82
2023/07/18 01:14:45;;;;;;;5.45;2.45;;;21.20;91.80;;;;;;5046564;28;20029;-80
2023/07/18 01:17:12;;;;;;;3.05;1.95;;;21.20;91.80;;;;;;5044271;28;20671;-82
2023/07/18 01:19:38;;;;;;;4.70;2.33;;;21.20;91.80;;;;;;5044663;28;20061;-82
2023/07/18 01:22:04;;;;;;;4.10;2.17;;;21.20;92.20;;;;;;5042696;28;20056;-82
2023/07/18 01:24:29;;;;;;;2.58;1.88;;;21.20;91.80;;;;;;5043950;28;20558;-82
2023/07/18 01:26:55;;;;;;;3.95;1.90;;;21.20;91.80;;;;;;5027181;28;20078;-82
2023/07/18 01:29:20;;;;;;;5.03;2.40;;;21.20;91.80;;;;;;5045982;28;20461;-82
2023/07/18 01:31:48;;;;;;;5.65;2.25;;;21.20;91.80;;;;;;5045333;28;20096;-82
2023/07/18 01:34:14;;;;;;;3.25;2.00;;;21.10;91.70;;;;;;5044392;28;20024;-82
2023/07/18 01:36:40;;;;;;;2.92;1.65;;;21.20;91.70;;;;;;5047228;28;20070;-82
2023/07/18 01:39:09;;;;;;;3.60;2.03;;;21.10;91.70;;;;;;5044686;28;20029;-82
2023/07/18 01:41:34;;;;;;;3.40;1.95;;;21.10;91.70;;;;;;5046304;28;20029;-82
2023/07/18 01:44:00;;;;;;;4.40;2.10;;;21.10;91.70;;;;;;5027564;28;20044;-82
2023/07/18 01:46:25;;;;;;;3.05;2.10;;;21.10;91.70;;;;;;5047998;28;20029;-82
2023/07/18 01:48:52;;;;;;;5.18;2.67;;;21.10;91.70;;;;;;5043103;28;20466;-82
2023/07/18 01:51:17;;;;;;;8.55;2.30;;;21.10;91.70;;;;;;5051493;28;20054;-81
2023/07/18 01:53:43;;;;;;;5.38;2.42;;;21.10;91.60;;;;;;5045845;28;20488;-82
2023/07/18 01:56:09;;;;;;;4.30;2.50;;;21.10;91.60;;;;;;5044290;28;20025;-82
2023/07/18 01:58:34;;;;;;;6.13;2.55;;;21.10;91.70;;;;;;5049397;28;20587;-83
2023/07/18 02:01:03;;;;;;;8.60;2.40;;;21.10;91.60;;;;;;5047935;28;20064;-82
2023/07/18 02:03:28;;;;;;;6.00;2.80;;;21.10;91.60;;;;;;5045406;28;20029;-82
2023/07/18 02:05:54;;;;;;;11.48;2.88;;;21.10;91.60;;;;;;5047631;28;20021;-82
2023/07/18 02:08:19;;;;;;;6.22;2.72;;;21.10;91.60;;;;;;5048552;28;20061;-82
2023/07/18 02:10:45;;;;;;;3.58;2.30;;;21.10;91.60;;;;;;5037159;28;20037;-81
2023/07/18 02:13:10;;;;;;;5.47;2.35;;;21.10;91.60;;;;;;5043984;28;20073;-82
2023/07/18 02:15:36;;;;;;;8.35;2.58;;;21.10;91.70;;;;;;5043642;28;20029;-82
2023/07/18 02:18:02;;;;;;;5.57;2.47;;;21.10;91.60;;;;;;5040135;28;20079;-82
2023/07/18 02:20:27;;;;;;;3.95;2.35;;;21.10;91.60;;;;;;5038442;28;20022;-82
2023/07/18 02:22:53;;;;;;;4.05;2.50;;;21.10;91.60;;;;;;5055772;28;20031;-81
2023/07/18 02:25:19;;;;;;;4.38;2.72;;;21.10;91.70;;;;;;5068201;28;20020;-81
2023/07/18 02:27:44;;;;;;;7.25;2.08;;;21.10;91.70;;;;;;5069257;28;20091;-82
2023/07/18 02:30:12;;;;;;;4.63;2.25;;;21.10;91.70;;;;;;5065708;28;20073;-82
2023/07/18 02:32:42;;;;;;;5.68;2.60;;;21.10;91.70;;;;;;5075325;28;20020;-82
2023/07/18 02:35:09;;;;;;;2.83;2.10;;;21.10;91.70;;;;;;5060588;28;20064;-80
2023/07/18 02:37:35;;;;;;;3.67;1.92;;;21.10;92.00;;;;;;5065292;28;20486;-81
2023/07/18 02:40:08;;;;;;;4.40;1.90;;;21.10;91.70;;;;;;5056451;28;20021;-81
2023/07/18 02:42:33;;;;;;;4.07;2.03;;;21.10;91.70;;;;;;5063356;28;20020;-81
2023/07/18 02:44:59;;;;;;;3.13;1.83;;;21.10;91.70;;;;;;5066373;28;20104;-81
2023/07/18 02:47:24;;;;;;;3.55;2.17;;;21.10;91.70;;;;;;5070810;28;20031;-81
2023/07/18 02:49:50;;;;;;;5.28;2.30;;;21.10;91.70;;;;;;5075969;28;20032;-81
2023/07/18 02:52:16;;;;;;;4.47;1.73;;;21.10;91.60;;;;;;5063775;28;20474;-81
2023/07/18 02:54:42;;;;;;;6.32;2.28;;;21.10;91.60;;;;;;5059337;28;20048;-81
2023/07/18 02:57:07;;;;;;;3.35;2.05;;;21.10;91.60;;;;;;5048399;28;20404;-81
2023/07/18 02:59:33;;;;;;;4.57;1.80;;;21.10;91.60;;;;;;5062734;28;20025;-80
2023/07/18 03:01:58;;;;;;;4.82;2.20;;;21.00;91.50;;;;;;5073468;28;20031;-82
2023/07/18 03:04:26;;;;;;;3.45;2.13;;;21.00;91.50;;;;;;5068711;28;20114;-81
2023/07/18 03:06:55;;;;;;;8.50;2.53;;;21.10;91.50;;;;;;5069096;28;20183;-80
2023/07/18 03:09:21;;;;;;;7.10;2.15;;;21.10;91.50;;;;;;5062286;28;20496;-81
2023/07/18 03:11:47;;;;;;;4.22;1.90;;;21.00;91.50;;;;;;5062324;28;20025;-82
2023/07/18 03:14:14;;;;;;;5.43;2.35;;;21.00;91.40;;;;;;5066002;28;20058;-81
2023/07/18 03:16:40;;;;;;;5.28;1.83;;;21.10;91.70;;;;;;5069685;28;20044;-81
2023/07/18 03:19:08;;;;;;;4.70;2.03;;;21.30;91.40;;;;;;5072700;28;20086;-82
2023/07/18 03:21:33;;;;;;;5.63;2.25;;;21.10;91.40;;;;;;5066299;28;20178;-82
2023/07/18 03:24:00;;;;;;;2.83;1.70;;;21.00;91.20;;;;;;5065440;28;20148;-81
2023/07/18 03:26:26;;;;;;;3.90;2.30;;;21.00;91.20;;;;;;5061973;28;20107;-82
2023/07/18 03:28:51;;;;;;;3.45;1.73;;;21.00;91.20;;;;;;5061879;28;20214;-81
2023/07/18 03:31:17;;;;;;;4.32;2.17;;;21.00;91.20;;;;;;5062996;28;20012;-81
2023/07/18 03:33:43;;;;;;;2.65;1.77;;;21.00;91.20;;;;;;5066162;28;20029;-82
2023/07/18 03:36:08;;;;;;;3.83;2.13;;;21.00;91.20;;;;;;5065142;28;20470;-82
2023/07/18 03:38:34;;;;;;;2.88;1.83;;;21.00;91.20;;;;;;5064192;28;20082;-82
2023/07/18 03:40:59;;;;;;;7.32;2.00;;;21.00;91.20;;;;;;5059884;28;20029;-82
2023/07/18 03:43:25;;;;;;;3.55;2.10;;;21.00;91.10;;;;;;5066312;28;20102;-82
2023/07/18 03:45:53;;;;;;;4.70;2.00;;;21.00;91.10;;;;;;5062018;28;20042;-82
2023/07/18 03:48:26;;;;;;;5.10;2.05;;;21.00;91.10;;;;;;5061722;28;20652;-81
2023/07/18 03:50:52;;;;;;;2.90;1.73;;;21.00;91.10;;;;;;5041207;28;20013;-81
2023/07/18 03:53:17;;;;;;;4.85;1.83;;;21.00;91.10;;;;;;5062201;28;20086;-81
2023/07/18 03:55:43;;;;;;;4.38;2.10;;;21.00;91.00;;;;;;5060268;28;20028;-82
2023/07/18 03:58:19;;;;;;;4.55;2.08;;;21.00;91.00;;;;;;5062085;28;20107;-81
2023/07/18 04:00:45;;;;;;;3.28;1.92;;;21.00;91.00;;;;;;5045784;28;20042;-83
2023/07/18 04:03:13;;;;;;;4.35;2.05;;;21.00;91.00;;;;;;5062562;28;20524;-82
2023/07/18 04:05:39;;;;;;;4.25;1.95;;;21.00;91.00;;;;;;5062702;28;20031;-82
2023/07/18 04:08:13;;;;;;;6.57;1.85;;;21.00;90.90;;;;;;5055660;28;20364;-80
2023/07/18 04:10:39;;;;;;;5.60;2.42;;;21.00;90.90;;;;;;5060823;28;20040;-81
2023/07/18 04:13:04;;;;;;;2.42;1.67;;;21.00;91.00;;;;;;5062147;28;20060;-82
2023/07/18 04:15:30;;;;;;;5.72;1.92;;;21.00;90.90;;;;;;5061479;28;20370;-81
2023/07/18 04:18:08;;;;;;;3.45;1.83;;;21.00;90.90;;;;;;5061826;28;20029;-81
2023/07/18 04:20:33;;;;;;;6.80;1.80;;;21.00;90.90;;;;;;5041858;28;20461;-81
2023/07/18 04:22:59;;;;;;;5.72;1.80;;;21.00;90.90;;;;;;5044035;28;20079;-81
2023/07/18 04:25:24;;;;;;;4.03;1.95;;;21.00;90.90;;;;;;5045867;28;20438;-82
2023/07/18 04:27:50;;;;;;;5.20;2.03;;;21.00;90.80;;;;;;5044783;28;20032;-82
2023/07/18 04:30:16;;;;;;;8.93;2.20;;;21.00;90.80;;;;;;5046045;28;20068;-81
2023/07/18 04:32:41;;;;;;;5.32;1.85;;;20.90;90.80;;;;;;5048665;28;20068;-81
2023/07/18 04:35:08;;;;;;;4.40;1.98;;;20.90;90.80;;;;;;5044943;28;20070;-82
2023/07/18 04:37:43;;;;;;;4.25;1.98;;;20.90;90.80;;;;;;5043891;28;20028;-81
2023/07/18 04:40:10;;;;;;;5.97;2.42;;;21.00;90.90;;;;;;5045399;28;20549;-82
2023/07/18 04:42:37;;;;;;;5.18;1.85;;;20.90;90.80;;;;;;5049886;28;20489;-81
2023/07/18 04:45:05;;;;;;;3.22;1.63;;;21.00;90.80;;;;;;5047629;28;20456;-81
2023/07/18 04:47:31;;;;;;;3.35;1.75;;;20.90;90.30;;;;;;5045692;28;20032;-81
2023/07/18 04:49:57;;;;;;;3.22;2.05;;;20.80;90.10;;;;;;5042681;28;20021;-80
2023/07/18 04:52:23;;;;;;;5.18;2.05;;;20.80;90.20;;;;;;5044165;28;20488;-82
2023/07/18 04:54:55;;;;;;;3.33;1.75;;;20.90;90.20;;;;;;5044866;28;20482;-81
2023/07/18 04:57:21;;;;;;;6.05;1.90;;;20.90;90.20;;;;;;5043220;28;20521;-81
2023/07/18 04:59:46;;;;;;;2.53;1.65;;;20.90;90.20;;;;;;5045951;28;20025;-81
2023/07/18 05:02:12;;;;;;;8.95;2.08;;;20.90;90.30;;;;;;5044444;28;20040;-81
2023/07/18 05:04:38;;;;;;;8.85;2.20;;;20.90;90.20;;;;;;5050372;28;20021;-82
2023/07/18 05:07:03;;;;;;;4.88;1.55;;;20.90;90.20;;;;;;5043670;28;20037;-81
2023/07/18 05:09:29;;;;;;;4.47;2.40;;;20.90;90.20;;;;;;5042684;28;20021;-81
2023/07/18 05:11:55;;;;;;;10.10;2.25;;;21.00;90.30;;;;;;5041658;28;20473;-82
2023/07/18 05:14:22;;;;;;;3.65;1.90;;;21.00;90.30;;;;;;5039352;28;20478;-81
2023/07/18 05:16:48;;;;;;;4.28;2.25;;;21.00;90.20;;;;;;5035812;28;20390;-81
2023/07/18 05:19:13;;;;;;;3.45;1.52;;;21.00;90.30;;;;;;5040637;28;20025;-81
2023/07/18 05:21:39;;;;;;;4.70;1.85;;;21.00;90.30;;;;;;5041962;28;20049;-81
2023/07/18 05:24:05;;;;;;;4.97;1.98;;;21.00;90.30;;;;;;5036857;28;20032;-81
2023/07/18 05:26:30;;;;;;;6.68;1.52;;;21.00;90.30;;;;;;5044264;28;20029;-82
2023/07/18 05:28:56;;;;;;;4.63;2.00;;;21.00;90.30;;;;;;5038507;28;20036;-81
2023/07/18 05:31:21;;;;;;;2.75;1.75;;;21.00;90.30;;;;;;5041237;28;20481;-82
2023/07/18 05:33:48;;;;;;;6.85;1.52;;;21.00;90.40;;;;;;5048904;28;20104;-81
2023/07/18 05:36:15;;;;;;;5.28;1.83;;;21.10;90.40;;;;;;5043125;28;20140;-82
2023/07/18 05:38:41;;;;;;;3.75;1.70;;;21.10;90.40;;;;;;5039187;28;20030;-82
2023/07/18 05:41:06;;;;;;;6.03;1.80;;;21.10;90.40;;;;;;5040719;28;20377;-82
2023/07/18 05:43:32;;;;;;;4.00;1.60;;;21.10;90.40;;;;;;5043787;28;20075;-80
2023/07/18 05:45:57;;;;;;;3.67;1.73;;;21.10;90.40;;;;;;5041518;28;20024;-83
2023/07/18 05:48:23;;;;;;;5.03;1.83;;;21.10;90.40;;;;;;5049293;28;20025;-82
2023/07/18 05:50:49;;;;;;;5.90;2.08;;;21.10;90.50;;;;;;5044620;28;20104;-81
2023/07/18 05:53:14;;;;;;;5.68;1.75;;;21.10;90.60;;;;;;5039426;28;20025;-82
2023/07/18 05:55:40;;;;;;;5.55;1.83;;;21.10;90.60;;;;;;5040195;28;20348;-81
2023/07/18 05:58:06;;;;;;;6.47;1.67;;;21.10;90.60;;;;;;5044619;28;20123;-82
2023/07/18 06:00:32;;;;;;;11.48;1.92;;;21.10;90.60;;;;;;5043488;28;20029;-82
2023/07/18 06:02:57;;;;;;;3.95;1.85;;;21.20;90.60;;;;;;5043395;28;20033;-81
2023/07/18 06:05:23;;;;;;;3.33;1.83;;;21.20;90.60;;;;;;5048611;28;20029;-82
2023/07/18 06:07:49;;;;;;;5.22;1.77;;;21.20;90.70;;;;;;5043833;28;20187;-83
2023/07/18 06:10:14;;;;;;;2.88;1.27;;;21.20;90.80;;;;;;5041149;28;20021;-82
2023/07/18 06:12:40;;;;;;;4.80;1.98;;;21.20;90.80;;;;;;5045233;28;20025;-82
2023/07/18 06:15:06;;;;;;;2.65;1.58;;;21.20;90.90;;;;;;5041788;28;20132;-82
2023/07/18 06:17:35;;;;;;;4.43;1.65;;;21.20;90.90;;;;;;5041026;28;20063;-81
2023/07/18 06:20:02;;;;;;;12.80;1.48;;;21.20;90.90;;;;;;5045146;28;20021;-82
2023/07/18 06:22:28;;;;;;;2.67;1.27;;;21.30;91.00;;;;;;5045686;28;20048;-81
2023/07/18 06:24:53;;;;;;;6.07;1.80;;;21.20;91.00;;;;;;5046934;28;20028;-82
2023/07/18 06:27:19;;;;;;;5.40;1.70;;;21.20;91.00;;;;;;5041518;28;20144;-81
2023/07/18 06:29:46;;;;;;;3.50;1.33;;;21.30;91.00;;;;;;5042758;28;20017;-82
2023/07/18 06:32:11;;;;;;;6.43;1.60;;;21.30;91.10;;;;;;5042423;28;20540;-80
2023/07/18 06:34:40;;;;;;;4.10;1.73;;;21.20;91.10;;;;;;5045363;28;20111;-82
2023/07/18 06:37:08;;;;;;;3.35;1.70;;;21.30;90.90;;;;;;5043334;28;20084;-82
2023/07/18 06:39:34;;;;;;;7.97;1.33;;;21.30;91.20;;;;;;5046410;28;20017;-82
2023/07/18 06:42:00;;;;;;;4.47;1.52;;;21.30;91.30;;;;;;5041503;28;20097;-79
2023/07/18 06:44:25;;;;;;;1.88;1.20;;;21.30;91.20;;;;;;5043774;28;20103;-81
2023/07/18 06:46:51;;;;;;;5.18;1.85;;;21.30;91.10;;;;;;5042748;28;20017;-80
2023/07/18 06:49:18;;;;;;;4.60;1.50;;;21.30;91.30;;;;;;5044771;28;20199;-82
2023/07/18 06:51:44;;;;;;;5.57;1.70;;;21.30;91.20;;;;;;5039468;28;20025;-82
2023/07/18 06:54:10;;;;;;;2.60;1.20;;;21.30;91.30;;;;;;5039713;28;20035;-82
2023/07/18 06:56:38;;;;;;;4.38;1.50;;;21.30;91.20;;;;;;5041424;28;20056;-82
2023/07/18 06:59:04;;;;;;;3.45;1.48;;;21.30;91.30;;;;;;5045138;28;20034;-82
2023/07/18 07:01:32;;;;;;;1.92;1.52;;;21.30;91.40;;;;;;5046159;28;20051;-81
2023/07/18 07:03:58;;;;;;;6.40;1.58;;;21.30;91.40;;;;;;5041394;28;20017;-82
2023/07/18 07:06:23;;;;;;;8.25;1.35;;;21.30;91.60;;;;;;5041972;28;20079;-82
2023/07/18 07:08:50;;;;;;;6.13;1.67;;;21.40;91.60;;;;;;5041553;28;20033;-82
2023/07/18 07:11:15;;;;;;;4.50;1.33;;;21.40;92.10;;;;;;5041964;28;20021;-82
2023/07/18 07:13:41;;;;;;;2.92;1.30;;;21.40;91.60;;;;;;5044554;28;20017;-82
2023/07/18 07:16:07;;;;;;;3.55;1.55;;;21.30;91.90;;;;;;5042159;28;20434;-82
2023/07/18 07:18:32;;;;;;;2.17;1.52;;;21.30;91.80;;;;;;5040354;28;20033;-82
2023/07/18 07:21:00;;;;;;;3.35;1.67;;;21.40;91.90;;;;;;5036507;28;20020;-81
2023/07/18 07:23:28;;;;;;;4.22;1.60;;;21.30;91.90;;;;;;5041507;28;20506;-82
2023/07/18 07:25:54;;;;;;;4.75;1.52;;;21.30;92.10;;;;;;5043773;28;20074;-82
2023/07/18 07:28:22;;;;;;;4.55;1.23;;;21.40;91.80;;;;;;5022384;28;20036;-81
2023/07/18 07:30:48;;;;;;;5.28;1.52;;;21.40;91.70;;;;;;5038236;28;20021;-81
2023/07/18 07:33:14;;;;;;;4.93;1.80;;;21.40;91.90;;;;;;5042194;28;20505;-82
2023/07/18 07:35:40;;;;;;;12.95;1.45;;;21.40;91.80;;;;;;5042958;28;20024;-81
2023/07/18 07:38:06;;;;;;;4.30;1.52;;;21.40;91.90;;;;;;5037895;28;20551;-82
2023/07/18 07:40:32;;;;;;;5.57;1.60;;;21.40;92.00;;;;;;5040378;28;20064;-81
2023/07/18 07:42:57;;;;;;;4.35;1.60;;;21.40;92.00;;;;;;5035576;28;20059;-82
2023/07/18 07:45:23;;;;;;;4.90;2.28;;;21.40;91.70;;;;;;5036854;28;20444;-81
2023/07/18 07:47:49;;;;;;;4.03;1.98;;;21.40;92.00;;;;;;5039872;28;20029;-82
2023/07/18 07:50:14;;;;;;;3.88;1.33;;;21.40;92.10;;;;;;5045785;28;20017;-83
2023/07/18 07:52:40;;;;;;;2.20;1.27;;;21.40;92.10;;;;;;5041221;28;20021;-82
2023/07/18 07:55:07;;;;;;;4.97;1.42;;;21.40;92.00;;;;;;5038575;28;20394;-82
2023/07/18 07:57:33;;;;;;;2.10;1.42;;;21.40;92.00;;;;;;5034069;28;20029;-82
2023/07/18 08:00:02;;;;;;;1.98;1.20;;;21.40;91.90;;;;;;5038906;28;20116;-83
2023/07/18 08:02:28;;;;;;;5.20;1.35;;;21.40;91.90;;;;;;5035049;28;20075;-81
2023/07/18 08:04:53;;;;;;;7.40;2.10;;;21.50;91.90;;;;;;5037176;28;20036;-81
2023/07/18 08:07:19;;;;;;;4.20;1.27;;;21.50;92.00;;;;;;5035860;28;20034;-83
2023/07/18 08:09:45;;;;;;;8.98;1.63;;;21.50;91.80;;;;;;5047499;28;20086;-82
2023/07/18 08:12:12;;;;;;;10.00;1.70;;;21.50;91.90;;;;;;5038299;28;20405;-82
2023/07/18 08:14:38;;;;;;;4.13;1.70;;;21.50;91.90;;;;;;5037228;28;20630;-82
2023/07/18 08:17:04;;;;;;;5.38;1.52;;;21.40;91.40;;;;;;5032982;28;20459;-82
2023/07/18 08:19:32;;;;;;;2.42;1.52;;;21.50;91.60;;;;;;5035162;28;20386;-82
2023/07/18 08:21:58;;;;;;;4.43;1.52;;;21.50;91.80;;;;;;5041657;28;20032;-82
2023/07/18 08:24:23;;;;;;;3.22;1.60;;;21.50;91.30;;;;;;5035479;28;20026;-81
2023/07/18 08:26:49;;;;;;;5.63;1.55;;;21.50;91.60;;;;;;5033805;28;20024;-82
2023/07/18 08:29:15;;;;;;;6.97;1.83;;;21.40;91.50;;;;;;5035622;28;20465;-82
2023/07/18 08:31:41;;;;;;;8.35;1.55;;;21.40;91.40;;;;;;5035724;28;20124;-82
2023/07/18 08:34:07;;;;;;;6.30;1.60;;;21.50;91.30;;;;;;5034792;28;20096;-82
2023/07/18 08:36:35;;;;;;;3.92;1.33;;;21.50;91.60;;;;;;5045092;28;20021;-82
2023/07/18 08:39:02;;;;;;;13.02;4.90;;;21.40;91.30;;;;;;5038420;28;20025;-82
2023/07/18 08:41:28;;;;;;;16.48;6.70;;;21.50;91.30;;;;;;5033833;28;20021;-80
2023/07/18 08:43:54;;;;;;;23.85;10.25;;;21.50;91.70;;;;;;5035104;28;20040;-82
2023/07/18 08:46:20;;;;;;;6.60;2.08;;;21.50;91.80;;;;;;5035300;28;20024;-83
2023/07/18 08:48:47;;;;;;;3.08;1.80;;;21.50;91.60;;;;;;5035890;28;20025;-83
2023/07/18 08:51:14;;;;;;;10.25;4.90;;;21.50;91.50;;;;;;5039833;28;20032;-84
2023/07/18 08:53:40;;;;;;;5.78;2.92;;;21.40;91.50;;;;;;5037928;28;20013;-83
2023/07/18 08:56:09;;;;;;;5.43;1.73;;;21.50;91.70;;;;;;5038668;28;20021;-82
2023/07/18 08:58:38;;;;;;;5.75;2.85;;;21.50;91.60;;;;;;5020756;28;20032;-87
2023/07/18 09:01:04;;;;;;;6.20;2.50;;;21.50;89.10;;;;;;5028403;28;20069;-87
2023/07/18 09:03:30;;;;;;;2.40;1.45;;;21.60;83.50;;;;;;5018565;28;20025;-87
2023/07/18 09:05:57;;;;;;;5.35;1.75;;;21.70;82.20;;;;;;5014813;28;20112;-86
2023/07/18 09:08:23;;;;;;;6.57;2.20;;;21.70;82.00;;;;;;5043919;28;20036;-85
2023/07/18 09:11:01;;;;;;;7.00;1.73;;;21.60;82.60;;;;;;5026997;28;20166;-86
2023/07/18 09:13:26;;;;;;;11.52;2.70;;;21.70;79.20;;;;;;5024987;28;20024;-86
2023/07/18 09:15:52;;;;;;;20.45;4.97;;;21.70;80.00;;;;;;5024125;28;20025;-86
2023/07/18 09:18:18;;;;;;;9.45;2.38;;;21.70;78.50;;;;;;5041401;28;20017;-87
2023/07/18 09:20:44;;;;;;;3.30;2.15;;;21.70;78.60;;;;;;5022990;28;20545;-86
2023/07/18 09:23:13;;;;;;;7.10;2.47;;;21.70;78.30;;;;;;5044643;28;20074;-87
2023/07/18 09:25:39;;;;;;;4.03;2.08;;;21.70;78.40;;;;;;5049287;28;20020;-86
2023/07/18 09:28:11;;;;;;;3.58;1.98;;;21.80;79.20;;;;;;5044255;28;20029;-87
2023/07/18 09:30:37;;;;;;;9.50;2.25;;;21.80;78.60;;;;;;5044400;28;20024;-87
2023/07/18 09:33:04;;;;;;;7.60;1.80;;;21.80;78.60;;;;;;5053143;28;20017;-86
2023/07/18 09:35:30;;;;;;;4.47;1.77;;;21.80;77.80;;;;;;5062354;28;20021;-85
2023/07/18 09:37:58;;;;;;;7.63;2.20;;;21.80;77.60;;;;;;5065801;28;20090;-87
2023/07/18 09:40:24;;;;;;;9.82;2.50;;;21.80;76.80;;;;;;5051225;28;20020;-87
2023/07/18 09:42:50;;;;;;;9.35;2.67;;;21.80;77.30;;;;;;5048591;28;20021;-86
2023/07/18 09:45:17;;;;;;;12.90;3.47;;;21.90;76.40;;;;;;5061524;28;20458;-86
2023/07/18 09:47:44;;;;;;;7.18;2.10;;;21.90;76.90;;;;;;5065321;28;20020;-88
2023/07/18 09:50:12;;;;;;;5.53;2.25;;;21.90;76.60;;;;;;5045191;28;20051;-87
2023/07/18 09:52:49;;;;;;;6.43;2.42;;;22.00;76.70;;;;;;5047562;28;20024;-87
2023/07/18 09:55:21;;;;;;;6.93;2.92;;;22.00;77.40;;;;;;5048543;28;20021;-87
2023/07/18 09:57:49;;;;;;;7.32;2.63;;;22.00;76.80;;;;;;5045119;28;20024;-86
2023/07/18 10:00:15;;;;;;;6.60;3.40;;;22.00;77.00;;;;;;5044561;28;20477;-87
2023/07/18 10:02:42;;;;;;;9.68;2.67;;;22.00;78.10;;;;;;5062573;28;20028;-82
2023/07/18 10:05:10;;;;;;;5.97;2.00;;;22.10;78.20;;;;;;5064424;28;20029;-82
2023/07/18 10:07:39;;;;;;;9.25;2.65;;;22.00;78.80;;;;;;5063490;28;20115;-82
2023/07/18 10:10:08;;;;;;;3.60;2.50;;;21.90;79.60;;;;;;5063150;28;20028;-82
2023/07/18 10:12:37;;;;;;;8.07;2.70;;;21.80;80.80;;;;;;5059901;28;20016;-81
2023/07/18 10:15:04;;;;;;;8.45;2.58;;;21.80;81.60;;;;;;5062841;28;20012;-81
2023/07/18 10:17:38;;;;;;;6.10;2.70;;;21.70;82.20;;;;;;5063444;28;20023;-82
2023/07/18 10:20:22;;;;;;;4.63;2.67;;;21.70;83.50;;;;;;5045650;28;20020;-82
2023/07/18 10:22:57;;;;;;;4.85;2.28;;;21.70;83.50;;;;;;5048124;28;20037;-82
2023/07/18 10:25:26;;;;;;;9.93;2.80;;;21.70;84.10;;;;;;5024237;28;20417;-82
2023/07/18 10:27:52;;;;;;;13.20;2.95;;;21.70;84.50;;;;;;5040152;28;20080;-82
2023/07/18 10:30:20;;;;;;;7.43;2.72;;;21.70;84.80;;;;;;5019312;28;20033;-82
2023/07/18 10:32:55;;;;;;;8.27;3.17;;;21.70;85.80;;;;;;5038220;28;20025;-83
2023/07/18 10:35:24;;;;;;;6.88;3.10;;;21.60;85.40;;;;;;5046964;28;20028;-82
2023/07/18 10:37:53;;;;;;;6.93;3.53;;;21.60;86.40;;;;;;5020543;28;20028;-82
2023/07/18 10:40:45;;;;;;;11.48;2.72;;;21.60;87.00;;;;;;5037773;28;20021;-82
2023/07/18 10:43:18;;;;;;;8.48;2.60;;;21.60;87.30;;;;;;5037547;28;20040;-82
2023/07/18 10:45:44;;;;;;;4.65;2.63;;;21.60;87.60;;;;;;5037921;28;20108;-83
2023/07/18 10:48:18;;;;;;;6.53;3.00;;;21.60;88.20;;;;;;5034128;28;20645;-83
2023/07/18 10:50:46;;;;;;;17.20;8.88;;;21.50;87.90;;;;;;5044919;28;20045;-81
2023/07/18 10:53:19;;;;;;;13.05;3.80;;;21.60;88.20;;;;;;5041078;28;20021;-82
2023/07/18 10:55:46;;;;;;;7.43;2.20;;;21.50;88.10;;;;;;5042953;28;20025;-82
2023/07/18 10:58:17;;;;;;;4.97;2.67;;;21.60;88.10;;;;;;5027634;28;20029;-82
2023/07/18 11:00:43;;;;;;;8.30;3.20;;;21.60;88.00;;;;;;5039548;28;20029;-82
2023/07/18 11:03:23;;;;;;;8.25;3.20;;;21.60;88.20;;;;;;5034848;28;20049;-82
2023/07/18 11:05:49;;;;;;;11.60;4.55;;;21.60;88.60;;;;;;5039895;28;20033;-81
2023/07/18 11:08:23;;;;;;;13.43;3.45;;;21.70;88.80;;;;;;5035823;28;20382;-81
2023/07/18 11:11:03;;;;;;;7.03;3.00;;;21.60;88.30;;;;;;5036507;28;20512;-81
2023/07/18 11:13:34;;;;;;;8.13;3.25;;;21.60;88.60;;;;;;5016010;28;20438;-82
2023/07/18 11:16:09;;;;;;;7.82;3.55;;;21.70;89.00;;;;;;5035672;28;20024;-82
2023/07/18 11:18:36;;;;;;;14.45;3.20;;;21.60;89.40;;;;;;5035107;28;20029;-82
2023/07/18 11:21:03;;;;;;;6.38;2.72;;;21.60;89.90;;;;;;5022278;28;20029;-82
2023/07/18 11:23:30;;;;;;;8.07;3.15;;;21.60;89.60;;;;;;5028821;28;20033;-82
2023/07/18 11:25:56;;;;;;;7.90;3.22;;;21.60;89.80;;;;;;5043041;28;20049;-82
2023/07/18 11:28:27;;;;;;;10.13;3.05;;;21.60;90.00;;;;;;5044217;28;20125;-82
2023/07/18 11:30:53;;;;;;;11.52;3.92;;;21.60;89.50;;;;;;5046769;28;20263;-82
2023/07/18 11:33:19;;;;;;;14.57;3.92;;;21.60;90.10;;;;;;5043962;28;20092;-82
2023/07/18 11:35:48;;;;;;;14.07;3.13;;;21.60;90.10;;;;;;5048015;28;20010;-81
2023/07/18 11:38:17;;;;;;;5.05;2.70;;;21.60;90.10;;;;;;5034280;28;20428;-81
2023/07/18 11:40:43;;;;;;;6.00;2.67;;;21.60;90.00;;;;;;5045404;28;20036;-82
2023/07/18 11:43:17;;;;;;;11.23;3.35;;;21.60;89.70;;;;;;5027330;28;20025;-82
2023/07/18 11:45:43;;;;;;;10.43;3.03;;;21.60;90.10;;;;;;5048152;28;20032;-81
2023/07/18 11:48:09;;;;;;;5.50;3.03;;;21.60;90.30;;;;;;5044646;28;20041;-82
2023/07/18 11:50:35;;;;;;;8.02;3.13;;;21.60;90.30;;;;;;5025077;28;20067;-82
2023/07/18 11:53:03;;;;;;;8.43;3.22;;;21.60;90.30;;;;;;5044296;28;20080;-81
2023/07/18 11:55:32;;;;;;;4.97;3.10;;;21.60;90.20;;;;;;5048982;28;20025;-81
2023/07/18 11:57:57;;;;;;;5.03;2.60;;;21.60;90.40;;;;;;5021880;28;20343;-81
2023/07/18 12:00:23;;;;;;;5.75;3.35;;;21.60;90.60;;;;;;5039468;28;20028;-82
2023/07/18 12:02:49;;;;;;;6.22;2.63;;;21.60;90.40;;;;;;5037472;28;20084;-81
2023/07/18 12:05:16;;;;;;;5.45;2.83;;;21.60;90.50;;;;;;5030662;28;20543;-81
2023/07/18 12:07:45;;;;;;;5.38;3.05;;;21.50;90.60;;;;;;5042861;28;20033;-81
2023/07/18 12:10:11;;;;;;;6.47;2.53;;;21.60;90.70;;;;;;5043184;28;20053;-81
2023/07/18 12:12:40;;;;;;;9.75;3.05;;;21.60;90.70;;;;;;5042501;28;20078;-81
2023/07/18 12:15:09;;;;;;;5.68;2.72;;;21.60;90.80;;;;;;5039762;28;20446;-81
2023/07/18 12:17:36;;;;;;;4.75;2.92;;;21.50;90.80;;;;;;5040503;28;20042;-81
2023/07/18 12:20:02;;;;;;;10.18;3.50;;;21.50;90.90;;;;;;5044029;28;20367;-80
2023/07/18 12:22:28;;;;;;;6.13;3.28;;;21.50;90.90;;;;;;5042282;28;20033;-80
2023/07/18 12:24:53;;;;;;;5.18;2.65;;;21.50;90.80;;;;;;5045463;28;20084;-81
2023/07/18 12:27:19;;;;;;;6.55;2.97;;;21.50;91.00;;;;;;5050307;28;20028;-81
2023/07/18 12:29:45;;;;;;;5.72;2.83;;;21.50;91.00;;;;;;5046550;28;20351;-81
2023/07/18 12:32:11;;;;;;;10.70;3.55;;;21.50;91.10;;;;;;5044942;28;20037;-81
2023/07/18 12:34:40;;;;;;;10.50;3.63;;;21.50;90.90;;;;;;5046748;28;20019;-81
2023/07/18 12:37:07;;;;;;;11.18;3.38;;;21.50;90.90;;;;;;5046061;28;20462;-81
2023/07/18 12:39:33;;;;;;;8.15;3.75;;;21.50;91.10;;;;;;5042760;28;20040;-81
2023/07/18 12:41:59;;;;;;;12.48;3.53;;;21.50;91.10;;;;;;5048642;28;20525;-81
2023/07/18 12:44:41;;;;;;;12.05;3.13;;;21.50;91.10;;;;;;5047888;28;20108;-80